This is the latest recevied weather packets stored in our database for station/object KC4LZN. If no packets are shown the sender has not sent any weather packets the latest 10 day(s).
| Time | Temp. | Humidity | Pressure | Rain* | Wind** | Luminosity | Snow |
|---|---|---|---|---|---|---|---|
| 1777993829 | 26.67° C | 57% | 1017.5 hPa | 0 mm | - | 773 W/m² | - |
| 1777993525 | 26.67° C | 58% | 1017.5 hPa | 0 mm | - | 763 W/m² | - |
| 1777993221 | 26.11° C | 61% | 1017.6 hPa | 0 mm | - | 723 W/m² | - |
| 1777992917 | 26.11° C | 63% | 1017.6 hPa | 0 mm | - | 750 W/m² | - |
| 1777992616 | 25.56° C | 66% | 1017.3 hPa | 0 mm | - | 757 W/m² | - |
| 1777992313 | 26.11° C | 63% | 1017.5 hPa | 0 mm | - | 732 W/m² | - |
| 1777992010 | 25.56° C | 67% | 1017.5 hPa | 0 mm | - | 677 W/m² | - |
| 1777991708 | 26.11° C | 65% | 1017.3 hPa | 0 mm | - | 664 W/m² | - |
| 1777991405 | 26.11° C | 67% | 1017.4 hPa | 0 mm | - | 653 W/m² | - |
| 1777991102 | 25.56° C | 68% | 1017.2 hPa | 0 mm | - | 628 W/m² | - |
| 1777990799 | 25.56° C | 67% | 1017.4 hPa | 0 mm | - | 593 W/m² | - |
| 1777990496 | 25° C | 70% | 1017.4 hPa | 0 mm | - | 573 W/m² | - |
| 1777989890 | 25° C | 68% | 1017.3 hPa | 0 mm | - | 349 W/m² | - |
| 1777989586 | 25° C | 69% | 1017.2 hPa | 0 mm | - | 501 W/m² | - |
| 1777989283 | 25° C | 71% | 1017.3 hPa | 0 mm | - | 535 W/m² | - |
| 1777988979 | 24.44° C | 70% | 1017.4 hPa | 0 mm | - | 514 W/m² | - |
| 1777988676 | 25° C | 71% | 1017.2 hPa | 0 mm | - | 502 W/m² | - |
| 1777988372 | 23.89° C | 73% | 1017.1 hPa | 0 mm | - | 485 W/m² | - |
| 1777988070 | 23.89° C | 71% | 1017.3 hPa | 0 mm | - | 448 W/m² | - |
| 1777987765 | 24.44° C | 73% | 1017.4 hPa | 0 mm | - | 449 W/m² | - |
| 1777987462 | 24.44° C | 72% | 1017.4 hPa | 0 mm | - | 402 W/m² | - |
| 1777987160 | 23.89° C | 73% | 1017.5 hPa | 0 mm | - | 405 W/m² | - |
| 1777986856 | 23.89° C | 73% | 1017.4 hPa | 0 mm | - | 385 W/m² | - |
| 1777986554 | 23.33° C | 74% | 1017.3 hPa | 0 mm | - | 373 W/m² | - |
| 1777986252 | 22.78° C | 77% | 1017.6 hPa | 0 mm | - | 340 W/m² | - |
* Rain latest hour (hover to see other rain measurements)
** Current wind speed in m/s (hover to see current wind gust speed)